Time;durP1;ratioP1;P1;durP2;ratioP2;P2;SDS_P1;SDS_P2;PMS_P1;PMS_P2;Temp;Humidity;BMP_temperature;BMP_pressure;BME280_temperature;BME280_humidity;BME280_pressure;Samples;Min_cycle;Max_cycle;Signal;HPM_P1;HPM_P2
2021/12/24 00:00:22;;;;;;;0.60;0.60;;;;;;;6.45;75.31;96286.38;29395;203;64009;-57
2021/12/24 00:00:54;;;;;;;0.50;0.50;;;;;;;6.45;75.02;96282.88;29396;230;63009;-59
2021/12/24 00:01:25;;;;;;;0.50;0.50;;;;;;;6.44;75.31;96282.06;29395;208;64009;-61
2021/12/24 00:01:56;;;;;;;0.50;0.50;;;;;;;6.42;75.37;96281.56;29396;209;63026;-62
2021/12/24 00:02:28;;;;;;;0.50;0.50;;;;;;;6.40;75.15;96283.72;29396;233;63005;-62
2021/12/24 00:02:59;;;;;;;0.50;0.50;;;;;;;6.37;75.35;96279.69;29396;199;63009;-61
2021/12/24 00:03:31;;;;;;;0.60;0.60;;;;;;;6.39;75.26;96282.09;29396;231;63005;-61
2021/12/24 00:04:02;;;;;;;0.50;0.50;;;;;;;6.37;75.42;96278.88;29395;214;64013;-59
2021/12/24 00:04:33;;;;;;;0.50;0.50;;;;;;;6.37;75.59;96279.69;29397;247;63004;-60
2021/12/24 00:05:07;;;;;;;0.50;0.50;;;;;;;6.38;75.37;96281.31;29396;210;64013;-61
2021/12/24 00:05:39;;;;;;;0.50;0.50;;;;;;;6.39;75.24;96276.72;29397;208;63004;-63
2021/12/24 00:06:12;;;;;;;0.50;0.50;;;;;;;6.40;75.21;96272.94;29397;293;63009;-61
2021/12/24 00:06:43;;;;;;;0.50;0.50;;;;;;;6.41;75.32;96269.16;29397;266;63004;-62
2021/12/24 00:07:15;;;;;;;0.50;0.50;;;;;;;6.40;75.40;96267.56;29397;305;63008;-61
2021/12/24 00:07:46;;;;;;;0.50;0.50;;;;;;;6.37;75.29;96268.09;29397;218;63005;-62
2021/12/24 00:08:17;;;;;;;0.50;0.50;;;;;;;6.40;75.28;96275.63;29397;244;63009;-59
2021/12/24 00:08:49;;;;;;;0.50;0.50;;;;;;;6.40;75.36;96270.25;29395;246;64009;-61
2021/12/24 00:09:23;;;;;;;0.50;0.50;;;;;;;6.40;75.17;96267.56;29397;279;63009;-61
2021/12/24 00:09:54;;;;;;;0.50;0.50;;;;;;;6.41;75.44;96261.06;29396;255;64009;-61
2021/12/24 00:10:26;;;;;;;0.50;0.50;;;;;;;6.41;75.44;96262.97;29397;212;63009;-59
2021/12/24 00:11:01;;;;;;;0.50;0.50;;;;;;;6.43;75.16;96260.78;29397;252;63005;-61
2021/12/24 00:11:34;;;;;;;0.50;0.50;;;;;;;6.40;75.41;96267.56;29397;212;63009;-57
2021/12/24 00:12:13;;;;;;;0.60;0.60;;;;;;;6.41;75.14;96268.34;29397;198;63004;-61
2021/12/24 00:12:49;;;;;;;0.50;0.50;;;;;;;6.43;75.11;96261.59;29397;221;63009;-58
2021/12/24 00:13:20;;;;;;;0.50;0.50;;;;;;;6.42;75.00;96265.38;29397;222;63004;-61
2021/12/24 00:13:52;;;;;;;0.50;0.50;;;;;;;6.40;75.24;96256.78;29397;264;63009;-62
2021/12/24 00:14:26;;;;;;;0.50;0.50;;;;;;;6.43;75.13;96253.53;29397;294;63015;-59
2021/12/24 00:15:02;;;;;;;0.50;0.50;;;;;;;6.44;75.00;96260.50;29396;220;64014;-61
2021/12/24 00:15:57;;;;;;;0.50;0.50;;;;;;;6.47;74.86;96256.47;29397;197;63005;-57
2021/12/24 00:16:38;;;;;;;0.50;0.50;;;;;;;6.49;75.00;96259.69;29397;202;63015;-59
2021/12/24 00:17:13;;;;;;;0.50;0.50;;;;;;;6.50;74.83;96251.31;29396;198;63005;-57
2021/12/24 00:17:45;;;;;;;0.60;0.60;;;;;;;6.53;74.61;96250.75;29396;271;63009;-60
2021/12/24 00:19:22;;;;;;;0.50;0.50;;;;;;;6.51;74.93;96247.53;29396;210;63009;-60
2021/12/24 00:35:16;;;;;;;0.60;0.60;;;;;;;6.51;74.76;96238.63;29395;202;64013;-60
2021/12/24 00:35:47;;;;;;;0.50;0.50;;;;;;;6.50;74.94;96237.84;29396;222;63017;-62
2021/12/24 00:36:18;;;;;;;0.60;0.60;;;;;;;6.50;74.83;96239.72;29396;220;63014;-59
2021/12/24 00:36:50;;;;;;;0.60;0.60;;;;;;;6.48;74.88;96242.69;29396;216;63005;-62
2021/12/24 00:37:21;;;;;;;0.50;0.50;;;;;;;6.50;75.27;96231.62;29396;225;63009;-59
2021/12/24 00:37:53;;;;;;;0.50;0.50;;;;;;;6.48;74.98;96237.31;29396;233;63005;-62
2021/12/24 00:38:24;;;;;;;0.50;0.50;;;;;;;6.48;75.05;96234.63;29396;200;63009;-61
2021/12/24 00:38:55;;;;;;;0.60;0.60;;;;;;;6.48;75.37;96237.31;29396;225;63005;-61
2021/12/24 00:39:28;;;;;;;0.60;0.60;;;;;;;6.48;74.97;96233.81;29395;266;64013;-62
2021/12/24 00:40:11;;;;;;;0.50;0.50;;;;;;;6.47;75.08;96240.28;29396;208;63005;-59
2021/12/24 00:40:46;;;;;;;0.60;0.60;;;;;;;6.48;75.40;96239.19;29396;202;63009;-61
2021/12/24 00:41:17;;;;;;;0.60;0.60;;;;;;;6.48;75.09;96239.19;29396;244;63004;-62
2021/12/24 00:41:48;;;;;;;0.50;0.50;;;;;;;6.48;75.32;96231.91;29396;218;63009;-61
2021/12/24 00:42:19;;;;;;;0.57;0.57;;;;;;;6.46;75.34;96234.09;29396;226;63004;-56
2021/12/24 00:42:54;;;;;;;0.52;0.52;;;;;;;6.45;75.26;96237.06;29395;202;64013;-61
2021/12/24 00:43:26;;;;;;;0.60;0.60;;;;;;;6.43;75.20;96240.03;29396;196;63004;-62
2021/12/24 00:44:00;;;;;;;0.60;0.60;;;;;;;6.41;75.47;96236.81;29396;210;63004;-61
2021/12/24 00:44:31;;;;;;;0.60;0.60;;;;;;;6.39;75.50;96233.59;29396;216;63005;-62
2021/12/24 00:45:04;;;;;;;0.50;0.50;;;;;;;6.37;75.49;96241.16;29395;197;64014;-62
2021/12/24 00:45:42;;;;;;;0.50;0.50;;;;;;;6.37;75.49;96235.78;29396;281;63005;-63
2021/12/24 00:46:13;;;;;;;0.60;0.60;;;;;;;6.39;75.71;96233.59;29395;203;64013;-61
2021/12/24 00:46:44;;;;;;;0.60;0.60;;;;;;;6.39;75.69;96233.59;29396;250;63009;-61
2021/12/24 00:47:16;;;;;;;0.60;0.60;;;;;;;6.38;75.84;96232.00;29396;251;63009;-62
2021/12/24 00:47:49;;;;;;;0.50;0.50;;;;;;;6.37;75.58;96227.69;29396;222;63008;-58
2021/12/24 00:48:20;;;;;;;0.50;0.50;;;;;;;6.37;75.90;96230.38;29396;266;63009;-61
2021/12/24 00:48:53;;;;;;;0.50;0.50;;;;;;;6.36;75.54;96229.59;29396;301;63004;-62
2021/12/24 00:49:24;;;;;;;0.60;0.60;;;;;;;6.37;75.52;96230.38;29396;270;63009;-61
2021/12/24 00:49:57;;;;;;;0.50;0.50;;;;;;;6.39;75.54;96230.91;29396;234;63018;-58
2021/12/24 00:50:34;;;;;;;0.50;0.50;;;;;;;6.39;75.72;96233.59;29396;263;63009;-62
2021/12/24 00:51:23;;;;;;;0.50;0.50;;;;;;;6.42;75.68;96232.25;29395;269;64008;-59
2021/12/24 00:52:18;;;;;;;0.50;0.50;;;;;;;6.39;75.87;96223.62;29396;222;63009;-61
2021/12/24 00:53:01;;;;;;;0.50;0.50;;;;;;;6.38;75.69;96227.41;29396;247;63005;-62
2021/12/24 00:55:18;;;;;;;0.50;0.50;;;;;;;6.35;75.83;96225.28;29396;236;63009;-62
2021/12/24 00:55:50;;;;;;;0.50;0.50;;;;;;;6.35;75.84;96227.16;29396;197;63009;-61
2021/12/24 00:56:21;;;;;;;0.50;0.50;;;;;;;6.36;75.78;96218.00;29395;202;64013;-59
2021/12/24 00:56:52;;;;;;;0.50;0.50;;;;;;;6.41;75.98;96220.66;29396;196;63018;-62
2021/12/24 00:57:23;;;;;;;0.60;0.60;;;;;;;6.45;75.87;96221.69;29396;230;63009;-61
2021/12/24 00:58:01;;;;;;;0.50;0.50;;;;;;;6.49;75.54;96216.56;29396;238;63004;-61
2021/12/24 00:58:32;;;;;;;0.55;0.55;;;;;;;6.46;75.55;96217.91;29396;247;63008;-58
2021/12/24 00:59:03;;;;;;;0.50;0.50;;;;;;;6.48;75.68;96215.75;29396;204;63004;-62
2021/12/24 00:59:35;;;;;;;0.50;0.50;;;;;;;6.46;75.76;96212.53;29396;202;63009;-62
2021/12/24 01:00:34;;;;;;;0.50;0.50;;;;;;;6.46;75.58;96212.53;29396;200;63005;-63
2021/12/24 01:01:08;;;;;;;0.50;0.50;;;;;;;6.49;75.88;96217.34;29396;254;63009;-62
2021/12/24 01:01:39;;;;;;;0.50;0.50;;;;;;;6.49;75.42;96211.97;29395;219;64009;-59
2021/12/24 01:02:11;;;;;;;0.50;0.50;;;;;;;6.50;75.54;96218.97;29396;231;63009;-61
2021/12/24 01:02:44;;;;;;;0.50;0.50;;;;;;;6.52;75.74;96213.28;29396;225;63010;-62
2021/12/24 01:03:15;;;;;;;0.50;0.50;;;;;;;6.53;75.54;96213.00;29396;238;63009;-60
2021/12/24 01:03:46;;;;;;;0.50;0.50;;;;;;;6.54;75.55;96209.22;29396;262;63007;-62
2021/12/24 01:04:17;;;;;;;0.50;0.50;;;;;;;6.55;75.66;96215.44;29396;231;63009;-60
2021/12/24 01:04:49;;;;;;;0.50;0.50;;;;;;;6.54;75.65;96220.00;29396;224;63004;-59
2021/12/24 01:05:23;;;;;;;0.60;0.60;;;;;;;6.56;75.31;96217.84;29396;308;63008;-61
2021/12/24 01:05:54;;;;;;;0.50;0.50;;;;;;;6.54;75.32;96217.31;29396;202;63010;-62
2021/12/24 01:06:25;;;;;;;0.50;0.50;;;;;;;6.56;75.25;96217.84;29396;206;63008;-62
2021/12/24 01:06:57;;;;;;;0.50;0.50;;;;;;;6.58;75.42;96217.56;29395;221;64009;-60
2021/12/24 01:07:28;;;;;;;0.50;0.50;;;;;;;6.56;75.42;96207.06;29397;252;63009;-63
2021/12/24 01:08:01;;;;;;;0.50;0.50;;;;;;;6.57;75.48;96214.06;29397;213;63010;-57
2021/12/24 01:08:32;;;;;;;0.50;0.50;;;;;;;6.57;75.52;96208.66;29397;283;63009;-63
2021/12/24 01:09:04;;;;;;;0.50;0.50;;;;;;;6.57;75.40;96203.28;29397;196;63005;-62
2021/12/24 01:09:36;;;;;;;0.50;0.50;;;;;;;6.57;75.17;96205.97;29397;214;63009;-60
2021/12/24 01:10:09;;;;;;;0.50;0.50;;;;;;;6.56;75.20;96204.38;29397;300;63005;-61
2021/12/24 01:10:44;;;;;;;0.50;0.50;;;;;;;6.56;75.52;96215.16;29395;211;63009;-56
2021/12/24 01:11:16;;;;;;;0.50;0.50;;;;;;;6.59;75.08;96209.16;29395;202;63004;-60
2021/12/24 01:11:47;;;;;;;0.50;0.50;;;;;;;6.61;75.45;96215.06;29395;222;63009;-62
2021/12/24 01:12:19;;;;;;;0.60;0.60;;;;;;;6.60;75.40;96213.47;29394;207;64009;-61
2021/12/24 01:12:50;;;;;;;0.50;0.50;;;;;;;6.59;75.26;96222.63;29395;224;63008;-57
2021/12/24 01:13:21;;;;;;;0.60;0.60;;;;;;;6.56;75.35;96203.56;29395;274;63004;-61
2021/12/24 01:13:53;;;;;;;0.50;0.50;;;;;;;6.54;75.75;96213.81;29395;252;63016;-62
2021/12/24 01:14:25;;;;;;;0.60;0.60;;;;;;;6.53;75.46;96218.41;29395;304;63005;-60
2021/12/24 01:14:57;;;;;;;0.55;0.55;;;;;;;6.53;75.71;96213.00;29395;211;63009;-61
2021/12/24 01:15:30;;;;;;;0.60;0.60;;;;;;;6.55;75.75;96210.03;29395;197;63005;-62
2021/12/24 01:16:15;;;;;;;0.50;0.50;;;;;;;6.55;75.68;96221.63;29395;252;63009;-62
2021/12/24 01:17:00;;;;;;;0.50;0.50;;;;;;;6.55;75.26;96216.22;29395;197;63005;-62
2021/12/24 01:17:41;;;;;;;0.50;0.50;;;;;;;6.57;75.24;96219.44;29393;204;64013;-61
2021/12/24 01:18:22;;;;;;;;;;;;;;;6.57;75.42;96224.84;29996;983;6000;-62
2021/12/24 01:19:03;;;;;;;0.60;0.60;;;;;;;6.56;75.27;96223.22;29399;202;64009;-61
2021/12/24 01:19:40;;;;;;;0.60;0.60;;;;;;;6.56;75.28;96228.63;29395;278;63009;-62
2021/12/24 01:21:27;;;;;;;0.50;0.50;;;;;;;6.60;75.16;96226.13;29395;246;63009;-62
2021/12/24 01:22:40;;;;;;;0.57;0.57;;;;;;;6.59;75.45;96233.41;29395;257;63005;-57
2021/12/24 01:24:10;;;;;;;0.55;0.55;;;;;;;6.57;75.29;96241.00;29393;200;64009;-59
2021/12/24 01:24:56;;;;;;;0.50;0.50;;;;;;;6.58;75.20;96242.63;29395;263;63024;-62
2021/12/24 01:25:38;;;;;;;0.60;0.60;;;;;;;6.61;75.42;96239.34;29395;263;63004;-62
2021/12/24 01:26:15;;;;;;;0.50;0.50;;;;;;;6.60;75.09;96232.34;29395;230;63009;-62
2021/12/24 01:26:59;;;;;;;0.50;0.50;;;;;;;6.61;75.22;96241.22;29395;205;63004;-61
2021/12/24 01:38:09;;;;;;;0.55;0.55;;;;;;;6.81;74.75;96211.41;29395;208;63005;-63
2021/12/24 01:39:09;;;;;;;0.60;0.60;;;;;;;6.81;74.68;96213.28;29395;245;63009;-61
2021/12/24 01:40:05;;;;;;;0.55;0.55;;;;;;;6.80;74.83;96217.06;29393;265;64027;-63
2021/12/24 01:40:51;;;;;;;0.50;0.50;;;;;;;6.81;74.58;96213.28;29395;212;63009;-62
2021/12/24 01:43:03;;;;;;;0.50;0.50;;;;;;;6.79;74.68;96216.25;29395;224;63004;-62
2021/12/24 01:43:34;;;;;;;0.50;0.50;;;;;;;6.80;74.61;96222.47;29395;202;63008;-62
2021/12/24 01:44:05;;;;;;;0.60;0.60;;;;;;;6.78;74.45;96213.84;29395;231;63005;-62
2021/12/24 01:44:37;;;;;;;1.50;1.02;;;;;;;6.83;74.77;96227.28;29395;282;63009;-61
2021/12/24 01:45:31;;;;;;;0.50;0.50;;;;;;;6.83;74.39;96216.50;29394;255;63997;-60
2021/12/24 01:46:03;;;;;;;0.50;0.50;;;;;;;6.80;74.74;96217.06;29395;207;63009;-61
2021/12/24 01:46:34;;;;;;;0.50;0.50;;;;;;;6.79;74.71;96215.47;29395;218;63005;-62
2021/12/24 01:47:08;;;;;;;0.95;0.95;;;;;;;6.80;74.75;96222.47;29395;344;63014;-62
2021/12/24 01:47:39;;;;;;;0.50;0.50;;;;;;;6.79;74.69;96220.84;29395;270;63005;-62
2021/12/24 01:48:10;;;;;;;0.50;0.50;;;;;;;6.78;74.68;96227.34;29395;351;63009;-59
2021/12/24 01:48:42;;;;;;;0.50;0.50;;;;;;;6.78;74.86;96224.62;29395;240;63004;-63
2021/12/24 01:49:13;;;;;;;0.50;0.50;;;;;;;6.79;74.83;96215.47;29395;198;63009;-61
2021/12/24 01:49:46;;;;;;;0.50;0.50;;;;;;;6.78;74.68;96222.75;29395;337;63004;-61
2021/12/24 01:50:19;;;;;;;0.60;0.60;;;;;;;6.78;74.79;96224.62;29394;209;64013;-61
2021/12/24 01:50:52;;;;;;;0.57;0.57;;;;;;;6.77;74.80;96223.03;29395;196;63004;-62
2021/12/24 01:51:23;;;;;;;0.60;0.60;;;;;;;6.77;74.69;96223.03;29395;221;63009;-61
2021/12/24 01:51:56;;;;;;;0.50;0.50;;;;;;;6.77;74.79;96221.13;29395;228;63005;-64
2021/12/24 01:52:27;;;;;;;0.50;0.50;;;;;;;6.82;74.59;96222.97;29395;220;63009;-62
2021/12/24 01:53:00;;;;;;;0.50;0.50;;;;;;;6.82;74.55;96220.28;29395;313;63005;-56
2021/12/24 01:53:34;;;;;;;0.60;0.60;;;;;;;6.81;74.81;96224.06;29395;237;63009;-62
2021/12/24 01:54:05;;;;;;;0.60;0.60;;;;;;;6.82;74.48;96221.09;29395;220;63005;-62
2021/12/24 01:54:38;;;;;;;0.50;0.50;;;;;;;6.83;74.61;96222.69;29395;209;63009;-62
2021/12/24 01:55:10;;;;;;;0.50;0.50;;;;;;;6.84;74.64;96223.50;29395;220;63005;-62
2021/12/24 01:55:43;;;;;;;0.50;0.50;;;;;;;6.84;74.71;96215.41;29394;202;64013;-61
2021/12/24 01:56:14;;;;;;;0.50;0.50;;;;;;;6.88;74.33;96219.16;29395;225;63004;-62
2021/12/24 01:56:46;;;;;;;0.50;0.50;;;;;;;6.88;74.37;96211.88;29395;272;63009;-62
2021/12/24 01:57:17;;;;;;;0.50;0.50;;;;;;;6.89;74.24;96218.06;29395;257;63004;-61
2021/12/24 01:57:49;;;;;;;0.50;0.50;;;;;;;6.91;74.25;96215.88;29395;208;63009;-62
2021/12/24 01:58:22;;;;;;;7.15;6.72;;;;;;;6.90;74.28;96212.37;29395;206;63004;-61
2021/12/24 01:58:53;;;;;;;0.50;0.50;;;;;;;6.89;74.46;96212.66;29395;201;63005;-61
2021/12/24 01:59:24;;;;;;;0.50;0.50;;;;;;;6.87;74.18;96212.16;29395;254;63005;-61
2021/12/24 01:59:56;;;;;;;0.50;0.50;;;;;;;6.86;74.31;96222.13;29395;202;63009;-61
2021/12/24 02:00:31;;;;;;;0.50;0.50;;;;;;;6.85;74.34;96219.72;29395;198;63005;-63
2021/12/24 02:01:02;;;;;;;0.50;0.50;;;;;;;6.85;74.56;96219.72;29394;206;64013;-61
2021/12/24 02:01:34;;;;;;;0.50;0.50;;;;;;;6.83;74.30;96211.91;29395;281;63005;-61
2021/12/24 02:02:05;;;;;;;0.50;0.50;;;;;;;6.85;74.65;96215.13;29395;355;63009;-59
2021/12/24 02:02:36;;;;;;;0.50;0.50;;;;;;;6.86;74.38;96215.94;29395;236;63005;-59
2021/12/24 02:03:10;;;;;;;0.50;0.50;;;;;;;6.85;74.49;96214.31;29395;227;63017;-63
2021/12/24 02:03:42;;;;;;;0.50;0.50;;;;;;;6.83;74.52;96211.09;29395;231;63004;-61
2021/12/24 02:04:14;;;;;;;0.50;0.50;;;;;;;6.85;74.53;96208.94;29395;244;63009;-62
2021/12/24 02:04:47;;;;;;;0.50;0.50;;;;;;;6.85;74.29;96208.94;29395;215;63004;-62
2021/12/24 02:05:19;;;;;;;0.50;0.50;;;;;;;6.88;74.13;96211.06;29395;206;63009;-62
2021/12/24 02:05:51;;;;;;;0.50;0.50;;;;;;;6.87;74.38;96204.06;29395;198;63004;-56
2021/12/24 02:06:25;;;;;;;0.50;0.50;;;;;;;6.86;74.40;96210.53;29394;210;64014;-62
2021/12/24 02:06:56;;;;;;;0.50;0.50;;;;;;;6.89;74.17;96212.66;29395;244;63005;-61
2021/12/24 02:07:27;;;;;;;0.50;0.50;;;;;;;6.90;74.22;96211.59;29395;198;63009;-61
2021/12/24 02:08:00;;;;;;;0.50;0.50;;;;;;;6.88;74.33;96213.75;29395;217;63007;-61
2021/12/24 02:08:32;;;;;;;0.50;0.50;;;;;;;6.87;74.38;96206.75;29395;222;63009;-62
2021/12/24 02:09:03;;;;;;;0.50;0.50;;;;;;;6.87;74.23;96214.84;29395;225;63005;-62
2021/12/24 02:09:36;;;;;;;0.50;0.50;;;;;;;6.90;73.95;96211.59;29395;213;63009;-62
2021/12/24 02:10:10;;;;;;;0.50;0.50;;;;;;;6.90;73.94;96214.28;29395;219;63004;-63
2021/12/24 02:10:42;;;;;;;0.50;0.50;;;;;;;6.92;73.94;96209.41;29395;206;63009;-62
2021/12/24 02:11:14;;;;;;;0.50;0.50;;;;;;;6.91;73.97;96219.38;29395;202;63004;-62
2021/12/24 02:11:46;;;;;;;0.50;0.50;;;;;;;6.91;74.04;96218.59;29394;248;64013;-61
2021/12/24 02:12:17;;;;;;;0.60;0.60;;;;;;;6.89;74.02;96209.97;29395;281;63004;-61
2021/12/24 02:12:49;;;;;;;0.50;0.50;;;;;;;6.88;73.97;96213.75;29395;280;63008;-61
2021/12/24 02:13:21;;;;;;;0.50;0.50;;;;;;;6.90;74.21;96216.97;29395;217;63004;-60
2021/12/24 02:13:52;;;;;;;0.50;0.50;;;;;;;6.89;74.08;96220.75;29395;298;63008;-60
2021/12/24 02:14:32;;;;;;;0.60;0.60;;;;;;;6.90;73.85;96216.97;29395;229;63005;-62
2021/12/24 02:15:09;;;;;;;0.50;0.50;;;;;;;6.89;74.21;96210.78;29395;222;63009;-62
2021/12/24 02:18:00;;;;;;;0.60;0.60;;;;;;;6.89;74.17;96210.78;29394;219;64009;-61
2021/12/24 02:28:17;;;;;;;3.05;2.85;;;;;;;6.92;73.76;96209.41;29395;234;63009;-62
2021/12/24 02:28:29;;;;;;;0.60;0.60;;;;;;;6.80;73.99;96195.50;29417;208;63004;-60
2021/12/24 02:29:01;;;;;;;0.50;0.50;;;;;;;6.77;74.27;96191.47;29417;214;63009;-60
2021/12/24 02:29:32;;;;;;;0.50;0.50;;;;;;;6.76;74.33;96189.06;29394;226;64009;-60
2021/12/24 02:30:06;;;;;;;0.50;0.50;;;;;;;6.75;74.39;96188.25;29395;239;63009;-59
2021/12/24 02:30:38;;;;;;;0.50;0.50;;;;;;;6.72;74.67;96186.94;29395;293;63005;-60
2021/12/24 02:31:21;;;;;;;0.50;0.50;;;;;;;6.70;74.75;96183.72;29395;212;63009;-59
2021/12/24 02:31:52;;;;;;;0.50;0.50;;;;;;;6.72;74.83;96188.84;29395;198;63005;-59
2021/12/24 02:32:30;;;;;;;0.50;0.50;;;;;;;6.70;74.56;96181.03;29394;275;64012;-60
2021/12/24 02:33:03;;;;;;;0.50;0.50;;;;;;;6.68;74.49;96183.19;29394;222;64009;-60
2021/12/24 02:33:34;;;;;;;0.50;0.50;;;;;;;6.67;74.57;96181.59;29395;248;63009;-61
2021/12/24 02:34:06;;;;;;;0.50;0.50;;;;;;;6.66;74.83;96182.69;29395;239;63004;-60
2021/12/24 02:34:37;;;;;;;0.50;0.50;;;;;;;6.69;74.92;96179.41;29395;259;63009;-61
2021/12/24 02:35:10;;;;;;;0.50;0.50;;;;;;;6.69;74.62;96184.81;29395;238;63004;-55
2021/12/24 02:35:41;;;;;;;0.50;0.50;;;;;;;6.71;74.71;96184.53;29395;289;63008;-62
2021/12/24 02:36:13;;;;;;;0.50;0.50;;;;;;;6.70;74.72;96181.03;29395;254;63005;-60
2021/12/24 02:36:45;;;;;;;0.50;0.50;;;;;;;6.67;74.94;96178.91;29395;203;63009;-63
2021/12/24 02:37:19;;;;;;;0.50;0.50;;;;;;;6.65;74.67;96178.38;29395;278;63009;-60
2021/12/24 02:37:51;;;;;;;0.55;0.55;;;;;;;6.63;74.83;96185.94;29394;259;64013;-60
2021/12/24 02:38:22;;;;;;;0.50;0.50;;;;;;;6.64;74.83;96184.06;29395;257;63008;-59
2021/12/24 02:38:54;;;;;;;0.60;0.60;;;;;;;6.69;74.80;96174.03;29395;196;63009;-61
2021/12/24 02:39:30;;;;;;;0.50;0.50;;;;;;;6.73;74.49;96175.06;29395;245;63005;-62
2021/12/24 02:40:02;;;;;;;0.50;0.50;;;;;;;6.73;74.43;96180.47;29395;296;63009;-60
2021/12/24 02:40:37;;;;;;;0.50;0.50;;;;;;;6.72;74.71;96173.47;29395;203;63004;-61
2021/12/24 02:41:10;;;;;;;0.55;0.55;;;;;;;6.70;74.74;96181.03;29395;259;63009;-61
2021/12/24 02:41:41;;;;;;;0.50;0.50;;;;;;;6.69;74.56;96176.72;29395;242;63004;-60
2021/12/24 02:42:19;;;;;;;0.50;0.50;;;;;;;6.67;74.56;96176.19;29395;237;63009;-62
2021/12/24 02:42:54;;;;;;;0.50;0.50;;;;;;;6.68;74.62;96175.13;29394;284;64008;-59
2021/12/24 02:43:26;;;;;;;0.50;0.50;;;;;;;6.68;74.87;96167.03;29394;197;64014;-60
2021/12/24 02:43:57;;;;;;;0.50;0.50;;;;;;;6.70;74.44;96162.16;29395;244;63005;-56
2021/12/24 02:44:28;;;;;;;0.50;0.50;;;;;;;6.69;74.58;96168.63;29395;246;63009;-61
2021/12/24 02:44:59;;;;;;;0.50;0.50;;;;;;;6.70;74.74;96170.25;29395;218;63010;-61
2021/12/24 02:45:38;;;;;;;0.50;0.50;;;;;;;6.72;74.47;96168.06;29395;257;63009;-59
2021/12/24 02:46:15;;;;;;;0.50;0.50;;;;;;;6.75;74.63;96161.31;29395;262;63010;-60
2021/12/24 02:54:06;;;;;;;0.50;0.50;;;;;;;6.81;74.21;96148.56;29394;245;64013;-61
2021/12/24 02:54:37;;;;;;;0.50;0.50;;;;;;;6.81;74.09;96153.97;29395;270;63005;-62
2021/12/24 02:55:11;;;;;;;0.50;0.50;;;;;;;6.79;74.06;96145.34;29395;215;63009;-60
2021/12/24 02:55:42;;;;;;;0.50;0.50;;;;;;;6.77;73.85;96147.53;29394;232;64009;-62
2021/12/24 02:56:14;;;;;;;0.50;0.50;;;;;;;6.73;74.24;96142.72;29395;303;63009;-58
2021/12/24 02:56:51;;;;;;;0.50;0.50;;;;;;;6.72;74.38;96145.69;29395;244;63004;-61
2021/12/24 02:57:27;;;;;;;0.50;0.50;;;;;;;6.74;74.06;96140.81;29395;224;63009;-59
2021/12/24 02:58:00;;;;;;;0.50;0.50;;;;;;;6.78;74.01;96144.56;29394;259;64008;-59
2021/12/24 02:58:43;;;;;;;0.50;0.50;;;;;;;6.78;74.18;96143.75;29395;229;63013;-59
2021/12/24 02:59:17;;;;;;;0.57;0.57;;;;;;;6.77;73.97;96142.16;29394;224;64009;-60
2021/12/24 02:59:59;;;;;;;0.50;0.50;;;;;;;6.79;73.98;96139.97;29395;197;63009;-59
2021/12/24 03:00:34;;;;;;;0.50;0.50;;;;;;;6.86;73.77;96141.22;29394;298;64009;-62
2021/12/24 03:01:06;;;;;;;0.50;0.50;;;;;;;6.85;73.86;96134.22;29395;205;63018;-62
2021/12/24 03:01:40;;;;;;;0.50;0.50;;;;;;;6.83;73.60;96132.91;29395;243;63005;-58
2021/12/24 03:02:11;;;;;;;0.50;0.50;;;;;;;6.83;73.97;96141.00;29395;241;63009;-60
2021/12/24 03:02:44;;;;;;;0.50;0.50;;;;;;;6.85;73.48;96133.44;29395;196;63000;-60
2021/12/24 03:03:16;;;;;;;0.50;0.50;;;;;;;6.86;73.51;96145.81;29395;211;63014;-58
2021/12/24 03:03:51;;;;;;;0.60;0.60;;;;;;;6.84;73.56;96139.91;29395;274;63004;-60
2021/12/24 03:04:23;;;;;;;0.50;0.50;;;;;;;6.83;73.96;96141.00;29394;214;64013;-60
2021/12/24 03:04:54;;;;;;;0.50;0.50;;;;;;;6.80;74.08;96136.19;29395;198;63004;-63
2021/12/24 03:05:26;;;;;;;0.50;0.50;;;;;;;6.80;73.99;96141.56;29395;204;63008;-61
2021/12/24 03:05:57;;;;;;;0.50;0.50;;;;;;;6.78;74.13;96141.84;29395;257;63005;-62
2021/12/24 03:06:34;;;;;;;0.50;0.50;;;;;;;6.77;74.00;96134.06;29395;218;63009;-61
2021/12/24 03:07:08;;;;;;;0.50;0.50;;;;;;;6.77;74.11;96134.84;29395;215;63005;-61
2021/12/24 03:07:40;;;;;;;0.55;0.55;;;;;;;6.82;73.97;96142.09;29395;226;63009;-61
2021/12/24 03:08:12;;;;;;;0.50;0.50;;;;;;;6.81;74.01;96137.78;29395;215;63005;-62
2021/12/24 03:08:43;;;;;;;0.60;0.60;;;;;;;6.80;73.72;96136.19;29395;189;63009;-61
2021/12/24 03:09:17;;;;;;;0.50;0.50;;;;;;;6.78;73.93;96132.97;29395;234;63005;-61
2021/12/24 03:09:49;;;;;;;0.85;0.85;;;;;;;6.80;74.10;96141.56;29394;206;64013;-63
2021/12/24 03:10:21;;;;;;;0.50;0.50;;;;;;;6.79;74.04;96137.28;29395;229;63004;-59
2021/12/24 03:10:54;;;;;;;0.50;0.50;;;;;;;6.78;74.16;96135.66;29394;218;64013;-62
2021/12/24 03:11:26;;;;;;;0.50;0.50;;;;;;;6.75;74.20;96144.31;29395;255;63004;-61
2021/12/24 03:11:59;;;;;;;0.50;0.50;;;;;;;6.72;74.04;96143.81;29394;303;64013;-60
2021/12/24 03:12:30;;;;;;;0.50;0.50;;;;;;;6.70;74.19;96132.50;29395;237;63010;-62
2021/12/24 03:13:03;;;;;;;0.50;0.50;;;;;;;6.68;74.27;96133.88;29395;227;63008;-60
2021/12/24 03:13:36;;;;;;;0.50;0.50;;;;;;;6.68;74.56;96140.06;29395;297;63005;-61
2021/12/24 03:14:09;;;;;;;0.50;0.50;;;;;;;6.66;74.46;96142.25;29395;203;63009;-60
2021/12/24 03:14:40;;;;;;;0.50;0.50;;;;;;;6.66;74.68;96136.84;29395;218;63005;-59
2021/12/24 03:15:14;;;;;;;0.60;0.60;;;;;;;6.66;74.44;96141.44;29395;257;63016;-60
2021/12/24 03:15:48;;;;;;;0.65;0.65;;;;;;;6.70;74.53;96143.28;29395;226;63005;-62
2021/12/24 03:16:20;;;;;;;0.60;0.60;;;;;;;6.72;74.47;96141.09;29395;277;63009;-60
2021/12/24 03:16:58;;;;;;;0.50;0.50;;;;;;;6.71;74.36;96144.87;29395;203;63014;-61
2021/12/24 03:17:32;;;;;;;0.52;0.52;;;;;;;6.73;74.35;96134.63;29394;207;64013;-62
2021/12/24 03:18:03;;;;;;;0.52;0.52;;;;;;;6.73;74.03;96148.09;29395;255;63000;-61
2021/12/24 03:18:37;;;;;;;0.50;0.50;;;;;;;6.73;74.12;96145.41;29395;212;63009;-61
2021/12/24 03:19:09;;;;;;;0.60;0.60;;;;;;;6.72;74.03;96143.81;29395;246;63004;-61
2021/12/24 03:19:40;;;;;;;0.50;0.50;;;;;;;6.71;74.39;96150.28;29395;218;63008;-60
2021/12/24 03:20:12;;;;;;;0.52;0.52;;;;;;;6.71;74.14;96144.87;29395;207;63004;-62
2021/12/24 03:20:43;;;;;;;0.60;0.60;;;;;;;6.71;74.31;96138.69;29395;201;63008;-60
2021/12/24 03:21:20;;;;;;;0.50;0.50;;;;;;;6.70;74.13;96137.88;29395;198;63005;-62
2021/12/24 03:21:59;;;;;;;0.50;0.50;;;;;;;6.69;74.39;96136.28;29394;246;64014;-59
2021/12/24 03:22:44;;;;;;;0.50;0.50;;;;;;;6.68;74.20;96140.06;29395;269;63005;-60
2021/12/24 03:23:33;;;;;;;0.50;0.50;;;;;;;6.65;74.44;96129.84;29395;216;63009;-62
2021/12/24 03:24:57;;;;;;;0.50;0.50;;;;;;;6.62;74.73;96127.72;29395;226;63009;-62
2021/12/24 03:25:28;;;;;;;0.50;0.50;;;;;;;6.62;74.44;96118.84;29395;219;63000;-61
2021/12/24 03:25:59;;;;;;;0.50;0.50;;;;;;;6.64;74.50;96127.44;29395;202;63009;-61
2021/12/24 03:26:39;;;;;;;0.50;0.50;;;;;;;6.60;74.49;96127.22;29395;264;63004;-62
2021/12/24 03:27:12;;;;;;;0.50;0.50;;;;;;;6.60;74.54;96121.81;29416;251;64013;-61
2021/12/24 03:27:45;;;;;;;0.50;0.50;;;;;;;6.57;74.53;96122.41;29395;223;63004;-61
2021/12/24 03:28:16;;;;;;;0.50;0.50;;;;;;;6.56;74.75;96126.19;29395;225;63009;-61
2021/12/24 03:28:47;;;;;;;0.50;0.50;;;;;;;6.55;74.65;96127.28;29394;197;64020;-62
2021/12/24 03:29:19;;;;;;;0.50;0.50;;;;;;;6.55;75.00;96119.19;29395;203;63009;-58
2021/12/24 03:29:51;;;;;;;0.50;0.50;;;;;;;6.54;74.98;96128.37;29395;232;63005;-61
2021/12/24 03:30:23;;;;;;;0.50;0.50;;;;;;;6.51;74.98;96128.94;29395;215;63009;-62
2021/12/24 03:30:54;;;;;;;0.50;0.50;;;;;;;6.52;74.81;96127.84;29395;220;63000;-62
2021/12/24 03:31:26;;;;;;;0.50;0.50;;;;;;;6.52;75.00;96129.75;29395;202;63009;-60
2021/12/24 03:31:58;;;;;;;0.50;0.50;;;;;;;6.51;75.22;96128.13;29395;212;63004;-61
2021/12/24 03:32:29;;;;;;;0.50;0.50;;;;;;;6.50;75.14;96127.34;29395;199;63009;-62
2021/12/24 03:33:00;;;;;;;0.50;0.50;;;;;;;6.49;75.31;96124.94;29394;198;64009;-60
2021/12/24 03:33:33;;;;;;;0.50;0.50;;;;;;;6.51;75.12;96123.56;29395;274;63009;-62
2021/12/24 03:34:08;;;;;;;0.50;0.50;;;;;;;6.50;74.84;96116.56;29395;278;63004;-61
2021/12/24 03:34:40;;;;;;;0.50;0.50;;;;;;;6.50;75.22;96111.16;29395;259;63008;-63
2021/12/24 03:35:11;;;;;;;0.60;0.60;;;;;;;6.51;74.82;96118.16;29394;222;64008;-61
2021/12/24 03:35:42;;;;;;;0.50;0.50;;;;;;;6.51;74.95;96117.34;29394;202;64014;-61
2021/12/24 03:36:13;;;;;;;0.50;0.50;;;;;;;6.51;74.91;96117.34;29395;197;63011;-63